Terminal Aerodrome Forecast
Issued by NWS Jacksonville, FL

Home | Current Version | Previous Version | Text Only | Print | Product List | Glossary On
Versions: 1 2 3 4 5 6 7 8 9 10 11 12 13 14 15 16 17 18 19 20 21 22 23 24 25 26 27 28 29 30
000
FTUS42 KJAX 211720
TAFJAX
TAF
KJAX 211720Z 2118/2218 14010KT P6SM SCT050 OVC200
     FM220200 13007KT P6SM BKN050 OVC200
     FM220800 12005KT 4SM BR VCSH SCT025 OVC040
     FM221400 12010KT 5SM -RA BKN025 OVC035=

USA.gov is the U.S. government's official web portal to all federal, state and local government web resources and services.